sensor_id;sensor_type;location;lat;lon;timestamp;temperature;humidity
10046;DHT22;5063;50.878;4.742;2023-12-20T00:01:22;6.10;99.90
10046;DHT22;5063;50.878;4.742;2023-12-20T00:03:48;6.10;99.90
10046;DHT22;5063;50.878;4.742;2023-12-20T00:06:13;6.30;99.90
10046;DHT22;5063;50.878;4.742;2023-12-20T00:08:39;6.10;99.90
10046;DHT22;5063;50.878;4.742;2023-12-20T00:11:05;6.00;99.90
10046;DHT22;5063;50.878;4.742;2023-12-20T00:13:31;5.80;99.90
10046;DHT22;5063;50.878;4.742;2023-12-20T00:15:56;5.90;99.90
10046;DHT22;5063;50.878;4.742;2023-12-20T00:18:23;5.80;99.90
10046;DHT22;5063;50.878;4.742;2023-12-20T00:20:49;5.80;99.90
10046;DHT22;5063;50.878;4.742;2023-12-20T00:23:15;5.80;99.90
10046;DHT22;5063;50.878;4.742;2023-12-20T00:25:40;5.80;99.90
10046;DHT22;5063;50.878;4.742;2023-12-20T00:28:06;5.70;99.90
10046;DHT22;5063;50.878;4.742;2023-12-20T00:30:32;5.90;99.90
10046;DHT22;5063;50.878;4.742;2023-12-20T00:32:57;5.80;99.90
10046;DHT22;5063;50.878;4.742;2023-12-20T00:35:23;6.00;99.90
10046;DHT22;5063;50.878;4.742;2023-12-20T00:37:49;6.10;99.90
10046;DHT22;5063;50.878;4.742;2023-12-20T00:40:15;6.30;99.90
10046;DHT22;5063;50.878;4.742;2023-12-20T00:42:41;6.10;99.90
10046;DHT22;5063;50.878;4.742;2023-12-20T00:45:07;6.00;99.90
10046;DHT22;5063;50.878;4.742;2023-12-20T00:47:33;5.90;99.90
10046;DHT22;5063;50.878;4.742;2023-12-20T00:49:59;5.90;99.90
10046;DHT22;5063;50.878;4.742;2023-12-20T00:52:25;6.00;99.90
10046;DHT22;5063;50.878;4.742;2023-12-20T00:54:51;5.90;99.90
10046;DHT22;5063;50.878;4.742;2023-12-20T00:57:17;5.60;99.90
10046;DHT22;5063;50.878;4.742;2023-12-20T00:59:43;5.70;99.90
10046;DHT22;5063;50.878;4.742;2023-12-20T01:02:08;5.50;99.90
10046;DHT22;5063;50.878;4.742;2023-12-20T01:04:35;5.60;99.90
10046;DHT22;5063;50.878;4.742;2023-12-20T01:07:01;5.60;99.90
10046;DHT22;5063;50.878;4.742;2023-12-20T01:09:27;5.60;99.90
10046;DHT22;5063;50.878;4.742;2023-12-20T01:11:53;5.60;99.90
10046;DHT22;5063;50.878;4.742;2023-12-20T01:14:19;5.50;99.90
10046;DHT22;5063;50.878;4.742;2023-12-20T01:16:45;5.60;99.90
10046;DHT22;5063;50.878;4.742;2023-12-20T01:19:10;5.50;99.90
10046;DHT22;5063;50.878;4.742;2023-12-20T01:21:36;5.50;99.90
10046;DHT22;5063;50.878;4.742;2023-12-20T01:24:02;5.40;99.90
10046;DHT22;5063;50.878;4.742;2023-12-20T01:26:28;5.20;99.90
10046;DHT22;5063;50.878;4.742;2023-12-20T01:28:53;5.40;99.90
10046;DHT22;5063;50.878;4.742;2023-12-20T01:31:19;5.30;99.90
10046;DHT22;5063;50.878;4.742;2023-12-20T01:33:45;5.40;99.90
10046;DHT22;5063;50.878;4.742;2023-12-20T01:36:11;5.50;99.90
10046;DHT22;5063;50.878;4.742;2023-12-20T01:38:37;5.40;99.90
10046;DHT22;5063;50.878;4.742;2023-12-20T01:41:03;5.40;99.90
10046;DHT22;5063;50.878;4.742;2023-12-20T01:43:29;5.30;99.90
10046;DHT22;5063;50.878;4.742;2023-12-20T01:45:56;5.30;99.90
10046;DHT22;5063;50.878;4.742;2023-12-20T01:48:23;5.30;99.90
10046;DHT22;5063;50.878;4.742;2023-12-20T01:50:50;5.40;99.90
10046;DHT22;5063;50.878;4.742;2023-12-20T01:53:17;5.40;99.90
10046;DHT22;5063;50.878;4.742;2023-12-20T01:55:44;5.30;99.90
10046;DHT22;5063;50.878;4.742;2023-12-20T01:58:11;5.40;99.90
10046;DHT22;5063;50.878;4.742;2023-12-20T02:00:38;5.40;99.90
10046;DHT22;5063;50.878;4.742;2023-12-20T02:03:04;5.30;99.90
10046;DHT22;5063;50.878;4.742;2023-12-20T02:05:31;5.30;99.90
10046;DHT22;5063;50.878;4.742;2023-12-20T02:07:57;5.40;99.90
10046;DHT22;5063;50.878;4.742;2023-12-20T02:10:24;5.30;99.90
10046;DHT22;5063;50.878;4.742;2023-12-20T02:12:50;5.30;99.90
10046;DHT22;5063;50.878;4.742;2023-12-20T02:15:15;5.40;99.90
10046;DHT22;5063;50.878;4.742;2023-12-20T02:17:41;5.50;99.90
10046;DHT22;5063;50.878;4.742;2023-12-20T02:20:07;5.30;99.90
10046;DHT22;5063;50.878;4.742;2023-12-20T02:22:33;5.30;99.90
10046;DHT22;5063;50.878;4.742;2023-12-20T02:24:59;5.60;99.90
10046;DHT22;5063;50.878;4.742;2023-12-20T02:27:24;5.30;99.90
10046;DHT22;5063;50.878;4.742;2023-12-20T02:29:50;5.10;99.90
10046;DHT22;5063;50.878;4.742;2023-12-20T02:32:17;5.20;99.90
10046;DHT22;5063;50.878;4.742;2023-12-20T02:34:43;5.10;99.90
10046;DHT22;5063;50.878;4.742;2023-12-20T02:37:09;5.20;99.90
10046;DHT22;5063;50.878;4.742;2023-12-20T02:39:35;5.20;99.90
10046;DHT22;5063;50.878;4.742;2023-12-20T02:42:00;5.20;99.90
10046;DHT22;5063;50.878;4.742;2023-12-20T02:44:26;5.00;99.90
10046;DHT22;5063;50.878;4.742;2023-12-20T02:46:52;5.20;99.90
10046;DHT22;5063;50.878;4.742;2023-12-20T02:49:18;5.10;99.90
10046;DHT22;5063;50.878;4.742;2023-12-20T02:51:43;5.40;99.90
10046;DHT22;5063;50.878;4.742;2023-12-20T02:54:09;5.40;99.90
10046;DHT22;5063;50.878;4.742;2023-12-20T02:56:35;5.70;99.90
10046;DHT22;5063;50.878;4.742;2023-12-20T02:59:01;5.70;99.90
10046;DHT22;5063;50.878;4.742;2023-12-20T03:01:28;5.80;99.90
10046;DHT22;5063;50.878;4.742;2023-12-20T03:03:54;6.00;99.90
10046;DHT22;5063;50.878;4.742;2023-12-20T03:06:20;5.70;99.90
10046;DHT22;5063;50.878;4.742;2023-12-20T03:08:46;5.80;99.90
10046;DHT22;5063;50.878;4.742;2023-12-20T03:11:12;5.80;99.90
10046;DHT22;5063;50.878;4.742;2023-12-20T03:13:37;5.90;99.90
10046;DHT22;5063;50.878;4.742;2023-12-20T03:16:13;5.80;99.90
10046;DHT22;5063;50.878;4.742;2023-12-20T03:18:39;5.50;99.90
10046;DHT22;5063;50.878;4.742;2023-12-20T03:21:05;5.90;99.90
10046;DHT22;5063;50.878;4.742;2023-12-20T03:23:31;5.70;99.90
10046;DHT22;5063;50.878;4.742;2023-12-20T03:25:59;5.80;99.90
10046;DHT22;5063;50.878;4.742;2023-12-20T03:28:26;5.90;99.90
10046;DHT22;5063;50.878;4.742;2023-12-20T03:30:52;5.80;99.90
10046;DHT22;5063;50.878;4.742;2023-12-20T03:33:17;5.50;99.90
10046;DHT22;5063;50.878;4.742;2023-12-20T03:35:43;5.60;99.90
10046;DHT22;5063;50.878;4.742;2023-12-20T03:38:09;5.70;99.90
10046;DHT22;5063;50.878;4.742;2023-12-20T03:40:35;5.80;99.90
10046;DHT22;5063;50.878;4.742;2023-12-20T03:43:01;5.80;99.90
10046;DHT22;5063;50.878;4.742;2023-12-20T03:45:26;5.80;99.90
10046;DHT22;5063;50.878;4.742;2023-12-20T03:47:52;5.80;99.90
10046;DHT22;5063;50.878;4.742;2023-12-20T03:50:25;5.80;99.90
10046;DHT22;5063;50.878;4.742;2023-12-20T03:52:51;5.90;99.90
10046;DHT22;5063;50.878;4.742;2023-12-20T03:55:17;5.80;99.90
10046;DHT22;5063;50.878;4.742;2023-12-20T03:57:43;5.80;99.90
10046;DHT22;5063;50.878;4.742;2023-12-20T04:00:09;5.90;99.90
10046;DHT22;5063;50.878;4.742;2023-12-20T04:02:37;5.70;99.90
10046;DHT22;5063;50.878;4.742;2023-12-20T04:05:03;5.60;99.90
10046;DHT22;5063;50.878;4.742;2023-12-20T04:07:29;5.70;99.90
10046;DHT22;5063;50.878;4.742;2023-12-20T04:09:55;5.90;99.90
10046;DHT22;5063;50.878;4.742;2023-12-20T04:12:20;5.70;99.90
10046;DHT22;5063;50.878;4.742;2023-12-20T04:14:46;5.70;99.90
10046;DHT22;5063;50.878;4.742;2023-12-20T04:17:12;5.80;99.90
10046;DHT22;5063;50.878;4.742;2023-12-20T04:19:37;5.80;99.90
10046;DHT22;5063;50.878;4.742;2023-12-20T04:22:03;6.10;99.90
10046;DHT22;5063;50.878;4.742;2023-12-20T04:24:29;5.70;99.90
10046;DHT22;5063;50.878;4.742;2023-12-20T04:26:55;5.50;99.90
10046;DHT22;5063;50.878;4.742;2023-12-20T04:29:20;5.70;99.90
10046;DHT22;5063;50.878;4.742;2023-12-20T04:31:46;5.60;99.90
10046;DHT22;5063;50.878;4.742;2023-12-20T04:34:12;5.60;99.90
10046;DHT22;5063;50.878;4.742;2023-12-20T04:36:37;5.60;99.90
10046;DHT22;5063;50.878;4.742;2023-12-20T04:39:03;5.70;99.90
10046;DHT22;5063;50.878;4.742;2023-12-20T04:41:29;5.60;99.90
10046;DHT22;5063;50.878;4.742;2023-12-20T04:43:55;5.60;99.90
10046;DHT22;5063;50.878;4.742;2023-12-20T04:46:20;5.60;99.90
10046;DHT22;5063;50.878;4.742;2023-12-20T04:48:46;5.70;99.90
10046;DHT22;5063;50.878;4.742;2023-12-20T04:51:12;5.60;99.90
10046;DHT22;5063;50.878;4.742;2023-12-20T04:53:37;5.60;99.90
10046;DHT22;5063;50.878;4.742;2023-12-20T04:56:03;5.60;99.90
10046;DHT22;5063;50.878;4.742;2023-12-20T04:58:29;5.60;99.90
10046;DHT22;5063;50.878;4.742;2023-12-20T05:00:55;5.50;99.90
10046;DHT22;5063;50.878;4.742;2023-12-20T05:03:20;5.50;99.90
10046;DHT22;5063;50.878;4.742;2023-12-20T05:05:46;5.50;99.90
10046;DHT22;5063;50.878;4.742;2023-12-20T05:08:12;5.50;99.90
10046;DHT22;5063;50.878;4.742;2023-12-20T05:10:38;5.70;99.90
10046;DHT22;5063;50.878;4.742;2023-12-20T05:13:05;5.60;99.90
10046;DHT22;5063;50.878;4.742;2023-12-20T05:15:31;5.40;99.90
10046;DHT22;5063;50.878;4.742;2023-12-20T05:17:57;5.50;99.90
10046;DHT22;5063;50.878;4.742;2023-12-20T05:20:22;5.70;99.90
10046;DHT22;5063;50.878;4.742;2023-12-20T05:22:48;5.40;99.90
10046;DHT22;5063;50.878;4.742;2023-12-20T05:25:14;5.40;99.90
10046;DHT22;5063;50.878;4.742;2023-12-20T05:27:40;5.50;99.90
10046;DHT22;5063;50.878;4.742;2023-12-20T05:30:06;5.30;99.90
10046;DHT22;5063;50.878;4.742;2023-12-20T05:32:32;5.30;99.90
10046;DHT22;5063;50.878;4.742;2023-12-20T05:34:58;5.30;99.90
10046;DHT22;5063;50.878;4.742;2023-12-20T05:37:23;5.30;99.90
10046;DHT22;5063;50.878;4.742;2023-12-20T05:39:49;5.30;99.90
10046;DHT22;5063;50.878;4.742;2023-12-20T05:42:15;5.40;99.90
10046;DHT22;5063;50.878;4.742;2023-12-20T05:44:40;5.40;99.90
10046;DHT22;5063;50.878;4.742;2023-12-20T05:47:06;5.30;99.90
10046;DHT22;5063;50.878;4.742;2023-12-20T05:49:32;5.30;99.90
10046;DHT22;5063;50.878;4.742;2023-12-20T05:51:57;5.30;99.90
10046;DHT22;5063;50.878;4.742;2023-12-20T05:54:23;5.30;99.90
10046;DHT22;5063;50.878;4.742;2023-12-20T05:56:49;5.60;99.90
10046;DHT22;5063;50.878;4.742;2023-12-20T05:59:16;5.30;99.90
10046;DHT22;5063;50.878;4.742;2023-12-20T06:01:41;5.30;99.90
10046;DHT22;5063;50.878;4.742;2023-12-20T06:04:07;5.30;99.90
10046;DHT22;5063;50.878;4.742;2023-12-20T06:06:33;5.30;99.90
10046;DHT22;5063;50.878;4.742;2023-12-20T06:08:59;5.40;99.90
10046;DHT22;5063;50.878;4.742;2023-12-20T06:11:25;5.30;99.90
10046;DHT22;5063;50.878;4.742;2023-12-20T06:13:51;5.30;99.90
10046;DHT22;5063;50.878;4.742;2023-12-20T06:16:18;5.50;99.90
10046;DHT22;5063;50.878;4.742;2023-12-20T06:18:44;5.40;99.90
10046;DHT22;5063;50.878;4.742;2023-12-20T06:21:10;5.70;99.90
10046;DHT22;5063;50.878;4.742;2023-12-20T06:23:38;5.50;99.90
10046;DHT22;5063;50.878;4.742;2023-12-20T06:26:04;5.60;99.90
10046;DHT22;5063;50.878;4.742;2023-12-20T06:28:30;5.70;99.90
10046;DHT22;5063;50.878;4.742;2023-12-20T06:30:55;5.40;99.90
10046;DHT22;5063;50.878;4.742;2023-12-20T06:33:22;5.80;99.90
10046;DHT22;5063;50.878;4.742;2023-12-20T06:35:49;5.80;99.90
10046;DHT22;5063;50.878;4.742;2023-12-20T06:38:15;5.60;99.90
10046;DHT22;5063;50.878;4.742;2023-12-20T06:40:41;5.80;99.90
10046;DHT22;5063;50.878;4.742;2023-12-20T06:43:08;5.80;99.90
10046;DHT22;5063;50.878;4.742;2023-12-20T06:45:33;5.70;99.90
10046;DHT22;5063;50.878;4.742;2023-12-20T06:48:00;6.00;99.90
10046;DHT22;5063;50.878;4.742;2023-12-20T06:50:25;5.50;99.90
10046;DHT22;5063;50.878;4.742;2023-12-20T06:52:51;5.50;99.90
10046;DHT22;5063;50.878;4.742;2023-12-20T06:55:18;5.50;99.90
10046;DHT22;5063;50.878;4.742;2023-12-20T06:57:43;5.60;99.90
10046;DHT22;5063;50.878;4.742;2023-12-20T07:00:11;5.50;99.90
10046;DHT22;5063;50.878;4.742;2023-12-20T07:02:37;5.80;99.90
10046;DHT22;5063;50.878;4.742;2023-12-20T07:05:03;5.30;99.90
10046;DHT22;5063;50.878;4.742;2023-12-20T07:07:28;5.40;99.90
10046;DHT22;5063;50.878;4.742;2023-12-20T07:09:54;5.30;99.90
10046;DHT22;5063;50.878;4.742;2023-12-20T07:12:20;5.20;99.90
10046;DHT22;5063;50.878;4.742;2023-12-20T07:14:46;5.40;99.90
10046;DHT22;5063;50.878;4.742;2023-12-20T07:17:12;5.20;99.90
10046;DHT22;5063;50.878;4.742;2023-12-20T07:19:40;5.20;99.90
10046;DHT22;5063;50.878;4.742;2023-12-20T07:22:06;5.20;99.90
10046;DHT22;5063;50.878;4.742;2023-12-20T07:24:32;5.20;99.90
10046;DHT22;5063;50.878;4.742;2023-12-20T07:27:00;5.00;99.90
10046;DHT22;5063;50.878;4.742;2023-12-20T07:29:26;5.10;99.90
10046;DHT22;5063;50.878;4.742;2023-12-20T07:31:52;5.30;99.90
10046;DHT22;5063;50.878;4.742;2023-12-20T07:34:20;5.30;99.90
10046;DHT22;5063;50.878;4.742;2023-12-20T07:36:45;5.10;99.90
10046;DHT22;5063;50.878;4.742;2023-12-20T07:39:11;5.30;99.90
10046;DHT22;5063;50.878;4.742;2023-12-20T07:41:37;5.30;99.90
10046;DHT22;5063;50.878;4.742;2023-12-20T07:44:04;5.30;99.90
10046;DHT22;5063;50.878;4.742;2023-12-20T07:46:30;5.30;99.90
10046;DHT22;5063;50.878;4.742;2023-12-20T07:48:56;5.20;99.90
10046;DHT22;5063;50.878;4.742;2023-12-20T07:51:22;5.40;99.90
10046;DHT22;5063;50.878;4.742;2023-12-20T07:53:47;5.20;99.90
10046;DHT22;5063;50.878;4.742;2023-12-20T07:56:17;5.30;99.90
10046;DHT22;5063;50.878;4.742;2023-12-20T07:58:44;5.30;99.90
10046;DHT22;5063;50.878;4.742;2023-12-20T08:01:10;5.30;99.90
10046;DHT22;5063;50.878;4.742;2023-12-20T08:03:36;5.30;99.90
10046;DHT22;5063;50.878;4.742;2023-12-20T08:06:02;5.40;99.90
10046;DHT22;5063;50.878;4.742;2023-12-20T08:08:28;5.20;99.90
10046;DHT22;5063;50.878;4.742;2023-12-20T08:10:54;5.20;99.90
10046;DHT22;5063;50.878;4.742;2023-12-20T08:13:20;5.30;99.90
10046;DHT22;5063;50.878;4.742;2023-12-20T08:15:50;5.30;99.90
10046;DHT22;5063;50.878;4.742;2023-12-20T08:18:16;5.30;99.90
10046;DHT22;5063;50.878;4.742;2023-12-20T08:20:42;5.40;99.90
10046;DHT22;5063;50.878;4.742;2023-12-20T08:23:07;5.50;99.90
10046;DHT22;5063;50.878;4.742;2023-12-20T08:25:33;5.30;99.90
10046;DHT22;5063;50.878;4.742;2023-12-20T08:27:59;5.50;99.90
10046;DHT22;5063;50.878;4.742;2023-12-20T08:30:24;5.30;99.90
10046;DHT22;5063;50.878;4.742;2023-12-20T08:32:50;5.60;99.90
10046;DHT22;5063;50.878;4.742;2023-12-20T08:35:16;5.50;99.90
10046;DHT22;5063;50.878;4.742;2023-12-20T08:37:43;5.40;99.90
10046;DHT22;5063;50.878;4.742;2023-12-20T08:40:09;5.60;99.90
10046;DHT22;5063;50.878;4.742;2023-12-20T08:42:35;6.00;99.90
10046;DHT22;5063;50.878;4.742;2023-12-20T08:45:01;5.90;99.90
10046;DHT22;5063;50.878;4.742;2023-12-20T08:47:27;6.00;99.90
10046;DHT22;5063;50.878;4.742;2023-12-20T08:49:52;6.10;99.90
10046;DHT22;5063;50.878;4.742;2023-12-20T08:52:23;6.20;99.90
10046;DHT22;5063;50.878;4.742;2023-12-20T08:54:50;6.30;99.90
10046;DHT22;5063;50.878;4.742;2023-12-20T08:57:21;6.30;99.90
10046;DHT22;5063;50.878;4.742;2023-12-20T08:59:49;6.40;99.90
10046;DHT22;5063;50.878;4.742;2023-12-20T09:02:16;6.40;99.90
10046;DHT22;5063;50.878;4.742;2023-12-20T09:04:42;6.40;99.90
10046;DHT22;5063;50.878;4.742;2023-12-20T09:07:21;6.30;99.90
10046;DHT22;5063;50.878;4.742;2023-12-20T09:09:47;6.40;99.90
10046;DHT22;5063;50.878;4.742;2023-12-20T09:12:12;6.40;99.90
10046;DHT22;5063;50.878;4.742;2023-12-20T09:14:38;6.40;99.90
10046;DHT22;5063;50.878;4.742;2023-12-20T09:17:04;6.40;99.90
10046;DHT22;5063;50.878;4.742;2023-12-20T09:19:30;6.50;99.90
10046;DHT22;5063;50.878;4.742;2023-12-20T09:21:55;6.40;99.90
10046;DHT22;5063;50.878;4.742;2023-12-20T09:24:21;6.30;99.90
10046;DHT22;5063;50.878;4.742;2023-12-20T09:26:47;6.40;99.90
10046;DHT22;5063;50.878;4.742;2023-12-20T09:29:12;6.20;99.90
10046;DHT22;5063;50.878;4.742;2023-12-20T09:31:41;6.30;99.90
10046;DHT22;5063;50.878;4.742;2023-12-20T09:34:09;6.30;99.90
10046;DHT22;5063;50.878;4.742;2023-12-20T09:36:35;6.30;99.90
10046;DHT22;5063;50.878;4.742;2023-12-20T09:39:02;6.30;99.90
10046;DHT22;5063;50.878;4.742;2023-12-20T09:41:31;6.50;99.90
10046;DHT22;5063;50.878;4.742;2023-12-20T09:43:59;6.40;99.90
10046;DHT22;5063;50.878;4.742;2023-12-20T09:46:26;6.40;99.90
10046;DHT22;5063;50.878;4.742;2023-12-20T09:48:55;6.70;99.90
10046;DHT22;5063;50.878;4.742;2023-12-20T09:51:22;6.70;99.90
10046;DHT22;5063;50.878;4.742;2023-12-20T09:53:48;6.70;99.90
10046;DHT22;5063;50.878;4.742;2023-12-20T09:56:15;6.80;99.90
10046;DHT22;5063;50.878;4.742;2023-12-20T09:58:41;6.80;99.90
10046;DHT22;5063;50.878;4.742;2023-12-20T10:01:08;7.00;99.90
10046;DHT22;5063;50.878;4.742;2023-12-20T10:03:33;6.90;99.90
10046;DHT22;5063;50.878;4.742;2023-12-20T10:06:00;7.10;99.90
10046;DHT22;5063;50.878;4.742;2023-12-20T10:08:26;7.20;99.90
10046;DHT22;5063;50.878;4.742;2023-12-20T10:10:52;7.20;99.90
10046;DHT22;5063;50.878;4.742;2023-12-20T10:13:18;7.30;99.90
10046;DHT22;5063;50.878;4.742;2023-12-20T10:15:43;7.40;99.90
10046;DHT22;5063;50.878;4.742;2023-12-20T10:18:09;7.50;99.90
10046;DHT22;5063;50.878;4.742;2023-12-20T10:20:36;7.80;99.90
10046;DHT22;5063;50.878;4.742;2023-12-20T10:23:02;7.70;99.90
10046;DHT22;5063;50.878;4.742;2023-12-20T10:25:28;7.80;99.90
10046;DHT22;5063;50.878;4.742;2023-12-20T10:28:16;7.90;99.90
10046;DHT22;5063;50.878;4.742;2023-12-20T10:30:48;7.80;99.90
10046;DHT22;5063;50.878;4.742;2023-12-20T10:33:14;7.80;99.90
10046;DHT22;5063;50.878;4.742;2023-12-20T10:35:48;7.80;99.90
10046;DHT22;5063;50.878;4.742;2023-12-20T10:38:14;7.90;99.90
10046;DHT22;5063;50.878;4.742;2023-12-20T10:40:40;7.90;99.90
10046;DHT22;5063;50.878;4.742;2023-12-20T10:43:07;8.00;99.90
10046;DHT22;5063;50.878;4.742;2023-12-20T10:45:34;8.10;99.90
10046;DHT22;5063;50.878;4.742;2023-12-20T10:48:01;8.10;99.90
10046;DHT22;5063;50.878;4.742;2023-12-20T10:50:28;8.10;99.90
10046;DHT22;5063;50.878;4.742;2023-12-20T10:52:55;8.10;99.90
10046;DHT22;5063;50.878;4.742;2023-12-20T10:55:25;8.10;99.90
10046;DHT22;5063;50.878;4.742;2023-12-20T10:57:51;8.00;99.90
10046;DHT22;5063;50.878;4.742;2023-12-20T11:00:21;8.20;99.90
10046;DHT22;5063;50.878;4.742;2023-12-20T11:02:50;8.10;99.90
10046;DHT22;5063;50.878;4.742;2023-12-20T11:05:24;8.20;99.90
10046;DHT22;5063;50.878;4.742;2023-12-20T11:07:58;8.20;99.90
10046;DHT22;5063;50.878;4.742;2023-12-20T11:13:16;8.40;99.90
10046;DHT22;5063;50.878;4.742;2023-12-20T11:15:43;8.40;99.90
10046;DHT22;5063;50.878;4.742;2023-12-20T11:18:09;8.40;99.90
10046;DHT22;5063;50.878;4.742;2023-12-20T11:20:41;8.40;99.90
10046;DHT22;5063;50.878;4.742;2023-12-20T11:23:08;8.40;99.90
10046;DHT22;5063;50.878;4.742;2023-12-20T11:25:47;8.40;99.90
10046;DHT22;5063;50.878;4.742;2023-12-20T11:28:14;8.30;99.90
10046;DHT22;5063;50.878;4.742;2023-12-20T11:30:46;8.50;99.90
10046;DHT22;5063;50.878;4.742;2023-12-20T11:33:16;8.80;99.90
10046;DHT22;5063;50.878;4.742;2023-12-20T11:35:42;8.70;99.90
10046;DHT22;5063;50.878;4.742;2023-12-20T11:38:09;8.50;99.90
10046;DHT22;5063;50.878;4.742;2023-12-20T11:40:36;8.50;99.90
10046;DHT22;5063;50.878;4.742;2023-12-20T11:43:03;8.50;99.90
10046;DHT22;5063;50.878;4.742;2023-12-20T11:45:29;8.50;99.90
10046;DHT22;5063;50.878;4.742;2023-12-20T11:47:56;8.80;99.90
10046;DHT22;5063;50.878;4.742;2023-12-20T11:50:23;8.70;99.90
10046;DHT22;5063;50.878;4.742;2023-12-20T11:52:51;8.90;99.90
10046;DHT22;5063;50.878;4.742;2023-12-20T11:55:17;8.50;99.90
10046;DHT22;5063;50.878;4.742;2023-12-20T11:57:43;8.60;99.90
10046;DHT22;5063;50.878;4.742;2023-12-20T12:00:10;8.50;99.90
10046;DHT22;5063;50.878;4.742;2023-12-20T12:02:36;8.60;99.90
10046;DHT22;5063;50.878;4.742;2023-12-20T12:05:02;8.70;99.90
10046;DHT22;5063;50.878;4.742;2023-12-20T12:07:31;8.80;99.90
10046;DHT22;5063;50.878;4.742;2023-12-20T12:09:57;8.80;99.90
10046;DHT22;5063;50.878;4.742;2023-12-20T12:12:24;8.80;99.90
10046;DHT22;5063;50.878;4.742;2023-12-20T12:14:51;8.70;99.90
10046;DHT22;5063;50.878;4.742;2023-12-20T12:17:17;8.50;99.90
10046;DHT22;5063;50.878;4.742;2023-12-20T12:19:43;8.60;99.90
10046;DHT22;5063;50.878;4.742;2023-12-20T12:22:13;8.50;99.90
10046;DHT22;5063;50.878;4.742;2023-12-20T12:24:41;8.50;99.90
10046;DHT22;5063;50.878;4.742;2023-12-20T12:27:07;8.60;99.90
10046;DHT22;5063;50.878;4.742;2023-12-20T12:29:34;8.60;99.90
10046;DHT22;5063;50.878;4.742;2023-12-20T12:32:01;8.60;99.90
10046;DHT22;5063;50.878;4.742;2023-12-20T12:34:30;8.90;99.90
10046;DHT22;5063;50.878;4.742;2023-12-20T12:36:56;8.60;99.90
10046;DHT22;5063;50.878;4.742;2023-12-20T12:39:23;8.50;99.90
10046;DHT22;5063;50.878;4.742;2023-12-20T12:41:52;8.70;99.90
10046;DHT22;5063;50.878;4.742;2023-12-20T12:44:19;8.40;99.90
10046;DHT22;5063;50.878;4.742;2023-12-20T12:46:46;8.60;99.90
10046;DHT22;5063;50.878;4.742;2023-12-20T12:49:11;8.50;99.90
10046;DHT22;5063;50.878;4.742;2023-12-20T12:51:37;8.60;99.90
10046;DHT22;5063;50.878;4.742;2023-12-20T12:54:03;8.60;99.90
10046;DHT22;5063;50.878;4.742;2023-12-20T12:56:29;8.60;99.90
10046;DHT22;5063;50.878;4.742;2023-12-20T12:58:55;8.50;99.90
10046;DHT22;5063;50.878;4.742;2023-12-20T13:01:21;8.50;99.90
10046;DHT22;5063;50.878;4.742;2023-12-20T13:03:46;8.50;99.90
10046;DHT22;5063;50.878;4.742;2023-12-20T13:06:12;8.70;99.90
10046;DHT22;5063;50.878;4.742;2023-12-20T13:08:38;8.50;99.90
10046;DHT22;5063;50.878;4.742;2023-12-20T13:11:04;8.60;99.90
10046;DHT22;5063;50.878;4.742;2023-12-20T13:13:31;8.70;99.90
10046;DHT22;5063;50.878;4.742;2023-12-20T13:15:57;8.50;99.90
10046;DHT22;5063;50.878;4.742;2023-12-20T13:18:22;8.40;99.90
10046;DHT22;5063;50.878;4.742;2023-12-20T13:20:49;8.40;99.90
10046;DHT22;5063;50.878;4.742;2023-12-20T13:23:14;8.50;99.90
10046;DHT22;5063;50.878;4.742;2023-12-20T13:25:41;8.40;99.90
10046;DHT22;5063;50.878;4.742;2023-12-20T13:28:07;8.40;99.90
10046;DHT22;5063;50.878;4.742;2023-12-20T13:30:34;8.50;99.90
10046;DHT22;5063;50.878;4.742;2023-12-20T13:33:00;8.50;99.90
10046;DHT22;5063;50.878;4.742;2023-12-20T13:35:25;8.50;99.90
10046;DHT22;5063;50.878;4.742;2023-12-20T13:37:51;8.60;99.90
10046;DHT22;5063;50.878;4.742;2023-12-20T13:40:17;8.90;99.90
10046;DHT22;5063;50.878;4.742;2023-12-20T13:42:43;8.60;99.90
10046;DHT22;5063;50.878;4.742;2023-12-20T13:45:09;8.60;99.90
10046;DHT22;5063;50.878;4.742;2023-12-20T13:47:35;8.60;99.90
10046;DHT22;5063;50.878;4.742;2023-12-20T13:50:01;8.50;99.90
10046;DHT22;5063;50.878;4.742;2023-12-20T13:52:27;8.70;99.90
10046;DHT22;5063;50.878;4.742;2023-12-20T13:54:53;8.50;99.90
10046;DHT22;5063;50.878;4.742;2023-12-20T13:57:19;8.30;99.90
10046;DHT22;5063;50.878;4.742;2023-12-20T13:59:44;8.40;99.90
10046;DHT22;5063;50.878;4.742;2023-12-20T14:02:10;8.50;99.90
10046;DHT22;5063;50.878;4.742;2023-12-20T14:04:36;8.50;99.90
10046;DHT22;5063;50.878;4.742;2023-12-20T14:07:04;8.50;99.90
10046;DHT22;5063;50.878;4.742;2023-12-20T14:09:30;8.50;99.90
10046;DHT22;5063;50.878;4.742;2023-12-20T14:11:55;8.30;99.90
10046;DHT22;5063;50.878;4.742;2023-12-20T14:14:21;8.40;99.90
10046;DHT22;5063;50.878;4.742;2023-12-20T14:16:47;8.40;99.90
10046;DHT22;5063;50.878;4.742;2023-12-20T14:19:13;8.40;99.90
10046;DHT22;5063;50.878;4.742;2023-12-20T14:21:38;8.40;99.90
10046;DHT22;5063;50.878;4.742;2023-12-20T14:24:04;8.40;99.90
10046;DHT22;5063;50.878;4.742;2023-12-20T14:26:30;8.60;99.90
10046;DHT22;5063;50.878;4.742;2023-12-20T14:28:57;8.60;99.90
10046;DHT22;5063;50.878;4.742;2023-12-20T14:31:23;8.60;99.90
10046;DHT22;5063;50.878;4.742;2023-12-20T14:33:51;8.60;99.90
10046;DHT22;5063;50.878;4.742;2023-12-20T14:36:19;8.70;99.90
10046;DHT22;5063;50.878;4.742;2023-12-20T14:38:45;8.80;99.90
10046;DHT22;5063;50.878;4.742;2023-12-20T14:41:12;8.80;99.90
10046;DHT22;5063;50.878;4.742;2023-12-20T14:43:38;8.80;99.90
10046;DHT22;5063;50.878;4.742;2023-12-20T14:46:04;8.80;99.90
10046;DHT22;5063;50.878;4.742;2023-12-20T14:48:31;8.90;99.90
10046;DHT22;5063;50.878;4.742;2023-12-20T14:50:57;8.90;99.90
10046;DHT22;5063;50.878;4.742;2023-12-20T14:53:24;8.90;99.90
10046;DHT22;5063;50.878;4.742;2023-12-20T14:55:50;9.00;99.90
10046;DHT22;5063;50.878;4.742;2023-12-20T14:58:16;8.90;99.90
10046;DHT22;5063;50.878;4.742;2023-12-20T15:00:42;8.80;99.90
10046;DHT22;5063;50.878;4.742;2023-12-20T15:03:09;8.80;99.90
10046;DHT22;5063;50.878;4.742;2023-12-20T15:05:35;8.80;99.90
10046;DHT22;5063;50.878;4.742;2023-12-20T15:08:01;8.80;99.90
10046;DHT22;5063;50.878;4.742;2023-12-20T15:10:27;8.80;99.90
10046;DHT22;5063;50.878;4.742;2023-12-20T15:12:53;8.80;99.90
10046;DHT22;5063;50.878;4.742;2023-12-20T15:15:20;8.80;99.90
10046;DHT22;5063;50.878;4.742;2023-12-20T15:17:46;8.80;99.90
10046;DHT22;5063;50.878;4.742;2023-12-20T15:20:12;8.80;99.90
10046;DHT22;5063;50.878;4.742;2023-12-20T15:22:37;8.70;99.90
10046;DHT22;5063;50.878;4.742;2023-12-20T15:25:05;8.80;99.90
10046;DHT22;5063;50.878;4.742;2023-12-20T15:27:34;8.80;99.90
10046;DHT22;5063;50.878;4.742;2023-12-20T15:30:03;8.70;99.90
10046;DHT22;5063;50.878;4.742;2023-12-20T15:32:28;8.70;99.90
10046;DHT22;5063;50.878;4.742;2023-12-20T15:34:54;8.90;99.90
10046;DHT22;5063;50.878;4.742;2023-12-20T15:37:20;8.90;99.90
10046;DHT22;5063;50.878;4.742;2023-12-20T15:39:46;8.70;99.90
10046;DHT22;5063;50.878;4.742;2023-12-20T15:42:11;8.80;99.90
10046;DHT22;5063;50.878;4.742;2023-12-20T15:44:37;8.80;99.90
10046;DHT22;5063;50.878;4.742;2023-12-20T15:47:03;8.80;99.90
10046;DHT22;5063;50.878;4.742;2023-12-20T15:49:29;8.80;99.90
10046;DHT22;5063;50.878;4.742;2023-12-20T15:51:54;8.80;99.90
10046;DHT22;5063;50.878;4.742;2023-12-20T15:54:20;8.80;99.90
10046;DHT22;5063;50.878;4.742;2023-12-20T15:56:46;8.90;99.90
10046;DHT22;5063;50.878;4.742;2023-12-20T15:59:13;8.90;99.90